Lindenau, Texas
Current Conditions -  °F | °C
As of 11:51 PM on Saturday 22 Nov 2014 (Local Time) from KVCT Reporting Station
Clear Clear  
Wind Chill: 62°   Ceiling: Unl
Heat Index: 62°   Visibility: 10mi
Dew Point: 58°   Wind: 6mph
Humidity: 86%   Direction: 200°SSW
Pressure: 29.7"   Gusts: NA
Location:  29.0941°N, 97.191°W
Report Text: KVCT 230551Z AUTO 20005KT 10SM CLR 17/14 A2970 RMK AO2 RAB03E14 SLP055 P0000 60000 T01670144 10233 20167 402390167 58037
Loading
Personal Weather Stations






























Interactive Weather Map New forecast layout! Learn more

10-Day Weather Forecast

Advertisements
Track Severe Weather on mobile